sensor_id;sensor_type;location;lat;lon;timestamp;temperature;humidity
15926;DHT22;8062;53.882;10.642;2024-02-23T00:00:29;10.20;99.90
15926;DHT22;8062;53.882;10.642;2024-02-23T00:01:48;10.20;99.90
15926;DHT22;8062;53.882;10.642;2024-02-23T00:03:08;10.20;99.90
15926;DHT22;8062;53.882;10.642;2024-02-23T00:04:29;10.20;99.90
15926;DHT22;8062;53.882;10.642;2024-02-23T00:05:49;10.20;99.90
15926;DHT22;8062;53.882;10.642;2024-02-23T00:07:09;10.20;99.90
15926;DHT22;8062;53.882;10.642;2024-02-23T00:08:28;10.20;99.90
15926;DHT22;8062;53.882;10.642;2024-02-23T00:09:48;10.20;99.90
15926;DHT22;8062;53.882;10.642;2024-02-23T00:11:07;10.10;99.90
15926;DHT22;8062;53.882;10.642;2024-02-23T00:12:27;10.10;99.90
15926;DHT22;8062;53.882;10.642;2024-02-23T00:13:47;10.10;99.90
15926;DHT22;8062;53.882;10.642;2024-02-23T00:15:07;10.10;99.90
15926;DHT22;8062;53.882;10.642;2024-02-23T00:16:26;10.10;99.90
15926;DHT22;8062;53.882;10.642;2024-02-23T00:17:46;10.00;99.90
15926;DHT22;8062;53.882;10.642;2024-02-23T00:19:07;10.00;99.90
15926;DHT22;8062;53.882;10.642;2024-02-23T00:20:27;9.90;99.90
15926;DHT22;8062;53.882;10.642;2024-02-23T00:21:47;9.90;99.90
15926;DHT22;8062;53.882;10.642;2024-02-23T00:23:09;9.90;99.90
15926;DHT22;8062;53.882;10.642;2024-02-23T00:24:29;9.90;99.90
15926;DHT22;8062;53.882;10.642;2024-02-23T00:25:48;9.80;99.90
15926;DHT22;8062;53.882;10.642;2024-02-23T00:27:08;9.90;99.90
15926;DHT22;8062;53.882;10.642;2024-02-23T00:28:27;9.90;99.90
15926;DHT22;8062;53.882;10.642;2024-02-23T00:29:47;9.90;99.90
15926;DHT22;8062;53.882;10.642;2024-02-23T00:31:06;9.80;99.90
15926;DHT22;8062;53.882;10.642;2024-02-23T00:32:26;9.80;99.90
15926;DHT22;8062;53.882;10.642;2024-02-23T00:33:45;9.80;99.90
15926;DHT22;8062;53.882;10.642;2024-02-23T00:35:05;9.80;99.90
15926;DHT22;8062;53.882;10.642;2024-02-23T00:36:25;9.80;99.90
15926;DHT22;8062;53.882;10.642;2024-02-23T00:37:45;9.80;99.90
15926;DHT22;8062;53.882;10.642;2024-02-23T00:39:05;9.80;99.90
15926;DHT22;8062;53.882;10.642;2024-02-23T00:40:26;9.80;99.90
15926;DHT22;8062;53.882;10.642;2024-02-23T00:41:46;9.80;99.90
15926;DHT22;8062;53.882;10.642;2024-02-23T00:43:05;9.80;99.90
15926;DHT22;8062;53.882;10.642;2024-02-23T00:44:25;9.80;99.90
15926;DHT22;8062;53.882;10.642;2024-02-23T00:45:45;9.80;99.90
15926;DHT22;8062;53.882;10.642;2024-02-23T00:47:04;9.70;99.90
15926;DHT22;8062;53.882;10.642;2024-02-23T00:48:24;9.70;99.90
15926;DHT22;8062;53.882;10.642;2024-02-23T00:49:44;9.70;99.90
15926;DHT22;8062;53.882;10.642;2024-02-23T00:51:03;9.70;99.90
15926;DHT22;8062;53.882;10.642;2024-02-23T00:52:23;9.70;99.90
15926;DHT22;8062;53.882;10.642;2024-02-23T00:53:42;9.60;99.90
15926;DHT22;8062;53.882;10.642;2024-02-23T00:55:02;9.60;99.90
15926;DHT22;8062;53.882;10.642;2024-02-23T00:56:22;9.50;99.90
15926;DHT22;8062;53.882;10.642;2024-02-23T00:57:41;9.50;99.90
15926;DHT22;8062;53.882;10.642;2024-02-23T00:59:01;9.50;99.90
15926;DHT22;8062;53.882;10.642;2024-02-23T01:00:21;9.50;99.90
15926;DHT22;8062;53.882;10.642;2024-02-23T01:01:41;9.50;99.90
15926;DHT22;8062;53.882;10.642;2024-02-23T01:03:00;9.50;99.90
15926;DHT22;8062;53.882;10.642;2024-02-23T01:04:20;9.50;99.90
15926;DHT22;8062;53.882;10.642;2024-02-23T01:05:39;9.40;99.90
15926;DHT22;8062;53.882;10.642;2024-02-23T01:06:59;9.40;99.90
15926;DHT22;8062;53.882;10.642;2024-02-23T01:08:19;9.40;99.90
15926;DHT22;8062;53.882;10.642;2024-02-23T01:09:39;9.40;99.90
15926;DHT22;8062;53.882;10.642;2024-02-23T01:10:58;9.30;99.90
15926;DHT22;8062;53.882;10.642;2024-02-23T01:12:18;9.30;99.90
15926;DHT22;8062;53.882;10.642;2024-02-23T01:13:37;9.30;99.90
15926;DHT22;8062;53.882;10.642;2024-02-23T01:14:57;9.30;99.90
15926;DHT22;8062;53.882;10.642;2024-02-23T01:16:16;9.30;99.90
15926;DHT22;8062;53.882;10.642;2024-02-23T01:17:36;9.30;99.90
15926;DHT22;8062;53.882;10.642;2024-02-23T01:18:56;9.30;99.90
15926;DHT22;8062;53.882;10.642;2024-02-23T01:20:16;9.10;99.90
15926;DHT22;8062;53.882;10.642;2024-02-23T01:21:36;8.70;99.90
15926;DHT22;8062;53.882;10.642;2024-02-23T01:22:56;8.30;99.90
15926;DHT22;8062;53.882;10.642;2024-02-23T01:24:15;8.00;99.90
15926;DHT22;8062;53.882;10.642;2024-02-23T01:25:35;7.80;99.90
15926;DHT22;8062;53.882;10.642;2024-02-23T01:26:55;7.80;99.90
15926;DHT22;8062;53.882;10.642;2024-02-23T01:28:15;7.70;99.90
15926;DHT22;8062;53.882;10.642;2024-02-23T01:29:35;7.60;99.90
15926;DHT22;8062;53.882;10.642;2024-02-23T01:30:54;7.60;99.90
15926;DHT22;8062;53.882;10.642;2024-02-23T01:32:14;7.50;99.90
15926;DHT22;8062;53.882;10.642;2024-02-23T01:33:33;7.50;99.90
15926;DHT22;8062;53.882;10.642;2024-02-23T01:34:55;7.50;99.90
15926;DHT22;8062;53.882;10.642;2024-02-23T01:36:14;7.50;99.90
15926;DHT22;8062;53.882;10.642;2024-02-23T01:37:34;7.40;99.90
15926;DHT22;8062;53.882;10.642;2024-02-23T01:38:53;7.40;99.90
15926;DHT22;8062;53.882;10.642;2024-02-23T01:40:14;7.40;99.90
15926;DHT22;8062;53.882;10.642;2024-02-23T01:41:33;7.50;99.90
15926;DHT22;8062;53.882;10.642;2024-02-23T01:43:05;7.50;99.90
15926;DHT22;8062;53.882;10.642;2024-02-23T01:44:24;7.50;99.90
15926;DHT22;8062;53.882;10.642;2024-02-23T01:45:44;7.50;99.90
15926;DHT22;8062;53.882;10.642;2024-02-23T01:47:04;7.40;99.90
15926;DHT22;8062;53.882;10.642;2024-02-23T01:48:23;7.40;99.90
15926;DHT22;8062;53.882;10.642;2024-02-23T01:49:44;7.40;99.90
15926;DHT22;8062;53.882;10.642;2024-02-23T01:51:04;7.40;99.90
15926;DHT22;8062;53.882;10.642;2024-02-23T01:52:23;7.40;99.90
15926;DHT22;8062;53.882;10.642;2024-02-23T01:53:43;7.40;99.90
15926;DHT22;8062;53.882;10.642;2024-02-23T01:55:03;7.40;99.90
15926;DHT22;8062;53.882;10.642;2024-02-23T01:56:23;7.30;99.90
15926;DHT22;8062;53.882;10.642;2024-02-23T01:57:43;7.30;99.90
15926;DHT22;8062;53.882;10.642;2024-02-23T01:59:04;7.30;99.90
15926;DHT22;8062;53.882;10.642;2024-02-23T02:00:23;7.20;99.90
15926;DHT22;8062;53.882;10.642;2024-02-23T02:01:47;7.20;99.90
15926;DHT22;8062;53.882;10.642;2024-02-23T02:03:07;7.20;99.90
15926;DHT22;8062;53.882;10.642;2024-02-23T02:04:27;7.30;99.90
15926;DHT22;8062;53.882;10.642;2024-02-23T02:05:47;7.30;99.90
15926;DHT22;8062;53.882;10.642;2024-02-23T02:07:09;7.30;99.90
15926;DHT22;8062;53.882;10.642;2024-02-23T02:08:28;7.30;99.90
15926;DHT22;8062;53.882;10.642;2024-02-23T02:09:48;7.30;99.90
15926;DHT22;8062;53.882;10.642;2024-02-23T02:11:08;7.30;99.90
15926;DHT22;8062;53.882;10.642;2024-02-23T02:12:28;7.30;99.90
15926;DHT22;8062;53.882;10.642;2024-02-23T02:13:47;7.30;99.90
15926;DHT22;8062;53.882;10.642;2024-02-23T02:15:07;7.30;99.90
15926;DHT22;8062;53.882;10.642;2024-02-23T02:16:27;7.30;99.90
15926;DHT22;8062;53.882;10.642;2024-02-23T02:17:46;7.30;99.90
15926;DHT22;8062;53.882;10.642;2024-02-23T02:19:06;7.30;99.90
15926;DHT22;8062;53.882;10.642;2024-02-23T02:20:25;7.30;99.90
15926;DHT22;8062;53.882;10.642;2024-02-23T02:21:47;7.40;99.90
15926;DHT22;8062;53.882;10.642;2024-02-23T02:23:07;7.40;99.90
15926;DHT22;8062;53.882;10.642;2024-02-23T02:24:26;7.40;99.90
15926;DHT22;8062;53.882;10.642;2024-02-23T02:25:54;7.40;99.90
15926;DHT22;8062;53.882;10.642;2024-02-23T02:27:14;7.40;99.90
15926;DHT22;8062;53.882;10.642;2024-02-23T02:28:33;7.40;99.90
15926;DHT22;8062;53.882;10.642;2024-02-23T02:29:53;7.40;99.90
15926;DHT22;8062;53.882;10.642;2024-02-23T02:31:13;7.30;99.90
15926;DHT22;8062;53.882;10.642;2024-02-23T02:32:32;7.30;99.90
15926;DHT22;8062;53.882;10.642;2024-02-23T02:33:52;7.30;99.90
15926;DHT22;8062;53.882;10.642;2024-02-23T02:35:12;7.30;99.90
15926;DHT22;8062;53.882;10.642;2024-02-23T02:36:31;7.30;99.90
15926;DHT22;8062;53.882;10.642;2024-02-23T02:37:51;7.20;99.90
15926;DHT22;8062;53.882;10.642;2024-02-23T02:39:10;7.10;99.90
15926;DHT22;8062;53.882;10.642;2024-02-23T02:40:30;7.00;99.90
15926;DHT22;8062;53.882;10.642;2024-02-23T02:41:51;6.90;99.90
15926;DHT22;8062;53.882;10.642;2024-02-23T02:43:10;6.90;99.90
15926;DHT22;8062;53.882;10.642;2024-02-23T02:44:30;6.90;99.90
15926;DHT22;8062;53.882;10.642;2024-02-23T02:45:49;6.90;99.90
15926;DHT22;8062;53.882;10.642;2024-02-23T02:47:09;6.90;99.90
15926;DHT22;8062;53.882;10.642;2024-02-23T02:48:28;6.90;99.90
15926;DHT22;8062;53.882;10.642;2024-02-23T02:49:48;6.80;99.90
15926;DHT22;8062;53.882;10.642;2024-02-23T02:51:08;6.80;99.90
15926;DHT22;8062;53.882;10.642;2024-02-23T02:52:27;6.70;99.90
15926;DHT22;8062;53.882;10.642;2024-02-23T02:53:48;6.60;99.90
15926;DHT22;8062;53.882;10.642;2024-02-23T02:55:07;6.60;99.90
15926;DHT22;8062;53.882;10.642;2024-02-23T02:56:27;6.60;99.90
15926;DHT22;8062;53.882;10.642;2024-02-23T02:57:47;6.50;99.90
15926;DHT22;8062;53.882;10.642;2024-02-23T02:59:06;6.50;99.90
15926;DHT22;8062;53.882;10.642;2024-02-23T03:00:26;6.50;99.90
15926;DHT22;8062;53.882;10.642;2024-02-23T03:01:45;6.50;99.90
15926;DHT22;8062;53.882;10.642;2024-02-23T03:03:06;6.50;99.90
15926;DHT22;8062;53.882;10.642;2024-02-23T03:04:25;6.50;99.90
15926;DHT22;8062;53.882;10.642;2024-02-23T03:05:45;6.50;99.90
15926;DHT22;8062;53.882;10.642;2024-02-23T03:07:04;6.50;99.90
15926;DHT22;8062;53.882;10.642;2024-02-23T03:08:24;6.50;99.90
15926;DHT22;8062;53.882;10.642;2024-02-23T03:09:43;6.40;99.90
15926;DHT22;8062;53.882;10.642;2024-02-23T03:11:03;6.40;99.90
15926;DHT22;8062;53.882;10.642;2024-02-23T03:12:22;6.30;99.90
15926;DHT22;8062;53.882;10.642;2024-02-23T03:13:42;6.20;99.90
15926;DHT22;8062;53.882;10.642;2024-02-23T03:15:01;6.20;99.90
15926;DHT22;8062;53.882;10.642;2024-02-23T03:16:24;6.10;99.90
15926;DHT22;8062;53.882;10.642;2024-02-23T03:17:48;6.10;99.90
15926;DHT22;8062;53.882;10.642;2024-02-23T03:19:08;6.10;99.90
15926;DHT22;8062;53.882;10.642;2024-02-23T03:20:27;6.00;99.90
15926;DHT22;8062;53.882;10.642;2024-02-23T03:21:47;6.00;99.90
15926;DHT22;8062;53.882;10.642;2024-02-23T03:23:06;6.00;99.90
15926;DHT22;8062;53.882;10.642;2024-02-23T03:24:25;6.00;99.90
15926;DHT22;8062;53.882;10.642;2024-02-23T03:25:45;6.00;99.90
15926;DHT22;8062;53.882;10.642;2024-02-23T03:27:04;6.00;99.90
15926;DHT22;8062;53.882;10.642;2024-02-23T03:28:24;6.10;99.90
15926;DHT22;8062;53.882;10.642;2024-02-23T03:29:43;6.10;99.90
15926;DHT22;8062;53.882;10.642;2024-02-23T03:31:03;6.10;99.90
15926;DHT22;8062;53.882;10.642;2024-02-23T03:32:22;6.10;99.90
15926;DHT22;8062;53.882;10.642;2024-02-23T03:33:42;6.20;99.90
15926;DHT22;8062;53.882;10.642;2024-02-23T03:35:06;6.20;99.90
15926;DHT22;8062;53.882;10.642;2024-02-23T03:36:26;6.10;99.90
15926;DHT22;8062;53.882;10.642;2024-02-23T03:37:45;6.20;99.90
15926;DHT22;8062;53.882;10.642;2024-02-23T03:39:05;6.20;99.90
15926;DHT22;8062;53.882;10.642;2024-02-23T03:40:24;6.20;99.90
15926;DHT22;8062;53.882;10.642;2024-02-23T03:41:44;6.20;99.90
15926;DHT22;8062;53.882;10.642;2024-02-23T03:43:04;6.20;99.90
15926;DHT22;8062;53.882;10.642;2024-02-23T03:44:25;6.20;99.90
15926;DHT22;8062;53.882;10.642;2024-02-23T03:45:44;6.10;99.90
15926;DHT22;8062;53.882;10.642;2024-02-23T03:47:04;6.10;99.90
15926;DHT22;8062;53.882;10.642;2024-02-23T03:48:23;6.10;99.90
15926;DHT22;8062;53.882;10.642;2024-02-23T03:49:43;6.10;99.90
15926;DHT22;8062;53.882;10.642;2024-02-23T03:51:04;6.10;99.90
15926;DHT22;8062;53.882;10.642;2024-02-23T03:52:24;6.10;99.90
15926;DHT22;8062;53.882;10.642;2024-02-23T03:53:43;6.10;99.90
15926;DHT22;8062;53.882;10.642;2024-02-23T03:55:03;6.10;99.90
15926;DHT22;8062;53.882;10.642;2024-02-23T03:56:23;6.10;99.90
15926;DHT22;8062;53.882;10.642;2024-02-23T03:57:42;6.10;99.90
15926;DHT22;8062;53.882;10.642;2024-02-23T03:59:01;6.10;99.90
15926;DHT22;8062;53.882;10.642;2024-02-23T04:00:21;6.10;99.90
15926;DHT22;8062;53.882;10.642;2024-02-23T04:01:42;6.10;99.90
15926;DHT22;8062;53.882;10.642;2024-02-23T04:03:01;6.10;99.90
15926;DHT22;8062;53.882;10.642;2024-02-23T04:04:21;6.10;99.90
15926;DHT22;8062;53.882;10.642;2024-02-23T04:05:40;6.00;99.90
15926;DHT22;8062;53.882;10.642;2024-02-23T04:07:00;6.00;99.90
15926;DHT22;8062;53.882;10.642;2024-02-23T04:08:19;6.00;99.90
15926;DHT22;8062;53.882;10.642;2024-02-23T04:09:38;6.00;99.90
15926;DHT22;8062;53.882;10.642;2024-02-23T04:10:58;6.00;99.90
15926;DHT22;8062;53.882;10.642;2024-02-23T04:12:18;6.00;99.90
15926;DHT22;8062;53.882;10.642;2024-02-23T04:13:39;6.00;99.90
15926;DHT22;8062;53.882;10.642;2024-02-23T04:14:58;6.00;99.90
15926;DHT22;8062;53.882;10.642;2024-02-23T04:16:18;6.00;99.90
15926;DHT22;8062;53.882;10.642;2024-02-23T04:17:37;6.00;99.90
15926;DHT22;8062;53.882;10.642;2024-02-23T04:18:57;6.00;99.90
15926;DHT22;8062;53.882;10.642;2024-02-23T04:20:18;5.90;99.90
15926;DHT22;8062;53.882;10.642;2024-02-23T04:21:37;6.00;99.90
15926;DHT22;8062;53.882;10.642;2024-02-23T04:22:57;6.00;99.90
15926;DHT22;8062;53.882;10.642;2024-02-23T04:24:16;6.00;99.90
15926;DHT22;8062;53.882;10.642;2024-02-23T04:25:36;5.90;99.90
15926;DHT22;8062;53.882;10.642;2024-02-23T04:26:56;6.00;99.90
15926;DHT22;8062;53.882;10.642;2024-02-23T04:28:15;5.90;99.90
15926;DHT22;8062;53.882;10.642;2024-02-23T04:29:35;5.90;99.90
15926;DHT22;8062;53.882;10.642;2024-02-23T04:30:55;5.90;99.90
15926;DHT22;8062;53.882;10.642;2024-02-23T04:32:14;5.80;99.90
15926;DHT22;8062;53.882;10.642;2024-02-23T04:33:34;5.80;99.90
15926;DHT22;8062;53.882;10.642;2024-02-23T04:34:55;5.80;99.90
15926;DHT22;8062;53.882;10.642;2024-02-23T04:36:19;5.80;99.90
15926;DHT22;8062;53.882;10.642;2024-02-23T04:37:38;5.80;99.90
15926;DHT22;8062;53.882;10.642;2024-02-23T04:38:58;5.80;99.90
15926;DHT22;8062;53.882;10.642;2024-02-23T04:40:17;5.80;99.90
15926;DHT22;8062;53.882;10.642;2024-02-23T04:41:37;5.80;99.90
15926;DHT22;8062;53.882;10.642;2024-02-23T04:42:56;5.80;99.90
15926;DHT22;8062;53.882;10.642;2024-02-23T04:44:16;5.80;99.90
15926;DHT22;8062;53.882;10.642;2024-02-23T04:45:36;5.80;99.90
15926;DHT22;8062;53.882;10.642;2024-02-23T04:46:55;5.80;99.90
15926;DHT22;8062;53.882;10.642;2024-02-23T04:48:14;5.80;99.90
15926;DHT22;8062;53.882;10.642;2024-02-23T04:49:34;5.80;99.90
15926;DHT22;8062;53.882;10.642;2024-02-23T04:50:54;5.80;99.90
15926;DHT22;8062;53.882;10.642;2024-02-23T04:52:13;5.80;99.90
15926;DHT22;8062;53.882;10.642;2024-02-23T04:53:36;5.80;99.90
15926;DHT22;8062;53.882;10.642;2024-02-23T04:54:56;5.80;99.90
15926;DHT22;8062;53.882;10.642;2024-02-23T04:56:16;5.80;99.90
15926;DHT22;8062;53.882;10.642;2024-02-23T04:57:36;5.80;99.90
15926;DHT22;8062;53.882;10.642;2024-02-23T04:58:57;5.80;99.90
15926;DHT22;8062;53.882;10.642;2024-02-23T05:00:16;5.80;99.90
15926;DHT22;8062;53.882;10.642;2024-02-23T05:01:37;5.80;99.90
15926;DHT22;8062;53.882;10.642;2024-02-23T05:02:57;5.90;99.90
15926;DHT22;8062;53.882;10.642;2024-02-23T05:04:16;5.80;99.90
15926;DHT22;8062;53.882;10.642;2024-02-23T05:05:36;5.80;99.90
15926;DHT22;8062;53.882;10.642;2024-02-23T05:06:55;5.90;99.90
15926;DHT22;8062;53.882;10.642;2024-02-23T05:08:15;5.90;99.90
15926;DHT22;8062;53.882;10.642;2024-02-23T05:09:34;5.90;99.90
15926;DHT22;8062;53.882;10.642;2024-02-23T05:10:54;5.90;99.90
15926;DHT22;8062;53.882;10.642;2024-02-23T05:12:14;5.90;99.90
15926;DHT22;8062;53.882;10.642;2024-02-23T05:13:33;5.80;99.90
15926;DHT22;8062;53.882;10.642;2024-02-23T05:14:53;5.90;99.90
15926;DHT22;8062;53.882;10.642;2024-02-23T05:16:14;5.80;99.90
15926;DHT22;8062;53.882;10.642;2024-02-23T05:17:34;5.80;99.90
15926;DHT22;8062;53.882;10.642;2024-02-23T05:18:53;5.90;99.90
15926;DHT22;8062;53.882;10.642;2024-02-23T05:20:14;5.90;99.90
15926;DHT22;8062;53.882;10.642;2024-02-23T05:21:33;5.90;99.90
15926;DHT22;8062;53.882;10.642;2024-02-23T05:22:53;5.90;99.90
15926;DHT22;8062;53.882;10.642;2024-02-23T05:24:12;5.90;99.90
15926;DHT22;8062;53.882;10.642;2024-02-23T05:25:32;5.90;99.90
15926;DHT22;8062;53.882;10.642;2024-02-23T05:26:51;5.90;99.90
15926;DHT22;8062;53.882;10.642;2024-02-23T05:28:11;5.90;99.90
15926;DHT22;8062;53.882;10.642;2024-02-23T05:29:30;5.90;99.90
15926;DHT22;8062;53.882;10.642;2024-02-23T05:30:51;5.90;99.90
15926;DHT22;8062;53.882;10.642;2024-02-23T05:32:10;5.90;99.90
15926;DHT22;8062;53.882;10.642;2024-02-23T05:33:30;5.90;99.90
15926;DHT22;8062;53.882;10.642;2024-02-23T05:34:49;5.90;99.90
15926;DHT22;8062;53.882;10.642;2024-02-23T05:36:12;5.90;99.90
15926;DHT22;8062;53.882;10.642;2024-02-23T05:37:32;5.90;99.90
15926;DHT22;8062;53.882;10.642;2024-02-23T05:38:51;5.90;99.90
15926;DHT22;8062;53.882;10.642;2024-02-23T05:40:11;5.90;99.90
15926;DHT22;8062;53.882;10.642;2024-02-23T05:41:31;5.90;99.90
15926;DHT22;8062;53.882;10.642;2024-02-23T05:42:50;5.90;99.90
15926;DHT22;8062;53.882;10.642;2024-02-23T05:44:10;5.90;99.90
15926;DHT22;8062;53.882;10.642;2024-02-23T05:45:30;5.90;99.90
15926;DHT22;8062;53.882;10.642;2024-02-23T05:46:50;5.90;99.90
15926;DHT22;8062;53.882;10.642;2024-02-23T05:48:09;5.90;99.90
15926;DHT22;8062;53.882;10.642;2024-02-23T05:49:29;5.90;99.90
15926;DHT22;8062;53.882;10.642;2024-02-23T05:50:49;5.90;99.90
15926;DHT22;8062;53.882;10.642;2024-02-23T05:52:08;5.80;99.90
15926;DHT22;8062;53.882;10.642;2024-02-23T05:53:28;5.90;99.90
15926;DHT22;8062;53.882;10.642;2024-02-23T05:54:51;5.90;99.90
15926;DHT22;8062;53.882;10.642;2024-02-23T05:56:13;5.80;99.90
15926;DHT22;8062;53.882;10.642;2024-02-23T05:57:32;5.80;99.90
15926;DHT22;8062;53.882;10.642;2024-02-23T05:58:52;5.80;99.90
15926;DHT22;8062;53.882;10.642;2024-02-23T06:00:11;5.70;99.90
15926;DHT22;8062;53.882;10.642;2024-02-23T06:01:32;5.70;99.90
15926;DHT22;8062;53.882;10.642;2024-02-23T06:02:51;5.80;99.90
15926;DHT22;8062;53.882;10.642;2024-02-23T06:04:10;5.80;99.90
15926;DHT22;8062;53.882;10.642;2024-02-23T06:05:30;5.80;99.90
15926;DHT22;8062;53.882;10.642;2024-02-23T06:06:49;5.80;99.90
15926;DHT22;8062;53.882;10.642;2024-02-23T06:08:09;5.80;99.90
15926;DHT22;8062;53.882;10.642;2024-02-23T06:09:29;5.80;99.90
15926;DHT22;8062;53.882;10.642;2024-02-23T06:10:48;5.80;99.90
15926;DHT22;8062;53.882;10.642;2024-02-23T06:12:08;5.80;99.90
15926;DHT22;8062;53.882;10.642;2024-02-23T06:13:28;5.80;99.90
15926;DHT22;8062;53.882;10.642;2024-02-23T06:14:48;5.80;99.90
15926;DHT22;8062;53.882;10.642;2024-02-23T06:16:10;5.80;99.90
15926;DHT22;8062;53.882;10.642;2024-02-23T06:17:33;5.80;99.90
15926;DHT22;8062;53.882;10.642;2024-02-23T06:18:53;5.90;99.90
15926;DHT22;8062;53.882;10.642;2024-02-23T06:20:12;5.80;99.90
15926;DHT22;8062;53.882;10.642;2024-02-23T06:21:32;5.80;99.90
15926;DHT22;8062;53.882;10.642;2024-02-23T06:22:51;5.80;99.90
15926;DHT22;8062;53.882;10.642;2024-02-23T06:24:11;5.80;99.90
15926;DHT22;8062;53.882;10.642;2024-02-23T06:25:30;5.80;99.90
15926;DHT22;8062;53.882;10.642;2024-02-23T06:26:50;5.80;99.90
15926;DHT22;8062;53.882;10.642;2024-02-23T06:28:11;5.80;99.90
15926;DHT22;8062;53.882;10.642;2024-02-23T06:29:31;5.80;99.90
15926;DHT22;8062;53.882;10.642;2024-02-23T06:30:50;5.80;99.90
15926;DHT22;8062;53.882;10.642;2024-02-23T06:32:10;5.80;99.90
15926;DHT22;8062;53.882;10.642;2024-02-23T06:33:30;5.80;99.90
15926;DHT22;8062;53.882;10.642;2024-02-23T06:34:50;5.70;99.90
15926;DHT22;8062;53.882;10.642;2024-02-23T06:36:10;5.70;99.90
15926;DHT22;8062;53.882;10.642;2024-02-23T06:37:29;5.70;99.90
15926;DHT22;8062;53.882;10.642;2024-02-23T06:38:49;5.70;99.90
15926;DHT22;8062;53.882;10.642;2024-02-23T06:40:09;5.70;99.90
15926;DHT22;8062;53.882;10.642;2024-02-23T06:41:28;5.70;99.90
15926;DHT22;8062;53.882;10.642;2024-02-23T06:42:48;5.70;99.90
15926;DHT22;8062;53.882;10.642;2024-02-23T06:44:09;5.60;99.90
15926;DHT22;8062;53.882;10.642;2024-02-23T06:45:29;5.70;99.90
15926;DHT22;8062;53.882;10.642;2024-02-23T06:46:48;5.70;99.90
15926;DHT22;8062;53.882;10.642;2024-02-23T06:48:08;5.70;99.90
15926;DHT22;8062;53.882;10.642;2024-02-23T06:49:27;5.70;99.90
15926;DHT22;8062;53.882;10.642;2024-02-23T06:50:47;5.80;99.90
15926;DHT22;8062;53.882;10.642;2024-02-23T06:52:06;5.80;99.90
15926;DHT22;8062;53.882;10.642;2024-02-23T06:53:26;5.80;99.90
15926;DHT22;8062;53.882;10.642;2024-02-23T06:54:47;5.80;99.90
15926;DHT22;8062;53.882;10.642;2024-02-23T06:56:06;5.80;99.90
15926;DHT22;8062;53.882;10.642;2024-02-23T06:57:26;5.80;99.90
15926;DHT22;8062;53.882;10.642;2024-02-23T06:58:45;5.90;99.90
15926;DHT22;8062;53.882;10.642;2024-02-23T07:00:05;5.90;99.90
15926;DHT22;8062;53.882;10.642;2024-02-23T07:01:26;5.80;99.90
15926;DHT22;8062;53.882;10.642;2024-02-23T07:02:47;5.90;99.90
15926;DHT22;8062;53.882;10.642;2024-02-23T07:04:07;5.80;99.90
15926;DHT22;8062;53.882;10.642;2024-02-23T07:05:27;5.80;99.90
15926;DHT22;8062;53.882;10.642;2024-02-23T07:06:46;5.80;99.90
15926;DHT22;8062;53.882;10.642;2024-02-23T07:08:06;5.80;99.90
15926;DHT22;8062;53.882;10.642;2024-02-23T07:09:25;5.80;99.90
15926;DHT22;8062;53.882;10.642;2024-02-23T07:10:45;5.80;99.90
15926;DHT22;8062;53.882;10.642;2024-02-23T07:12:04;5.80;99.90
15926;DHT22;8062;53.882;10.642;2024-02-23T07:13:24;5.80;99.90
15926;DHT22;8062;53.882;10.642;2024-02-23T07:14:44;5.80;99.90
15926;DHT22;8062;53.882;10.642;2024-02-23T07:16:04;5.80;99.90
15926;DHT22;8062;53.882;10.642;2024-02-23T07:17:24;5.80;99.90
15926;DHT22;8062;53.882;10.642;2024-02-23T07:18:43;5.80;99.90
15926;DHT22;8062;53.882;10.642;2024-02-23T07:20:03;5.80;99.90
15926;DHT22;8062;53.882;10.642;2024-02-23T07:21:24;5.80;99.90
15926;DHT22;8062;53.882;10.642;2024-02-23T07:22:45;5.80;99.90
15926;DHT22;8062;53.882;10.642;2024-02-23T07:24:05;5.80;99.90
15926;DHT22;8062;53.882;10.642;2024-02-23T07:25:25;5.80;99.90
15926;DHT22;8062;53.882;10.642;2024-02-23T07:26:45;5.80;99.90
15926;DHT22;8062;53.882;10.642;2024-02-23T07:28:05;5.90;99.90
15926;DHT22;8062;53.882;10.642;2024-02-23T07:29:24;5.80;99.90
15926;DHT22;8062;53.882;10.642;2024-02-23T07:30:44;5.90;99.90
15926;DHT22;8062;53.882;10.642;2024-02-23T07:32:04;5.90;99.90
15926;DHT22;8062;53.882;10.642;2024-02-23T07:33:23;5.90;99.90
15926;DHT22;8062;53.882;10.642;2024-02-23T07:34:43;5.90;99.90
15926;DHT22;8062;53.882;10.642;2024-02-23T07:36:03;5.80;99.90
15926;DHT22;8062;53.882;10.642;2024-02-23T07:37:22;5.80;99.90
15926;DHT22;8062;53.882;10.642;2024-02-23T07:38:42;5.80;99.90
15926;DHT22;8062;53.882;10.642;2024-02-23T07:40:03;5.80;99.90
15926;DHT22;8062;53.882;10.642;2024-02-23T07:41:23;5.80;99.90
15926;DHT22;8062;53.882;10.642;2024-02-23T07:42:43;5.90;99.90
15926;DHT22;8062;53.882;10.642;2024-02-23T07:44:03;5.90;99.90
15926;DHT22;8062;53.882;10.642;2024-02-23T07:45:22;5.90;99.90
15926;DHT22;8062;53.882;10.642;2024-02-23T07:46:42;5.90;99.90
15926;DHT22;8062;53.882;10.642;2024-02-23T07:48:01;5.90;99.90
15926;DHT22;8062;53.882;10.642;2024-02-23T07:49:21;6.00;99.90
15926;DHT22;8062;53.882;10.642;2024-02-23T07:50:44;5.90;99.90
15926;DHT22;8062;53.882;10.642;2024-02-23T07:52:04;5.90;99.90
15926;DHT22;8062;53.882;10.642;2024-02-23T07:53:23;5.90;99.90
15926;DHT22;8062;53.882;10.642;2024-02-23T07:54:43;6.00;99.90
15926;DHT22;8062;53.882;10.642;2024-02-23T07:56:02;6.00;99.90
15926;DHT22;8062;53.882;10.642;2024-02-23T07:57:23;6.00;99.90
15926;DHT22;8062;53.882;10.642;2024-02-23T07:58:43;6.00;99.90
15926;DHT22;8062;53.882;10.642;2024-02-23T08:00:03;5.90;99.90
15926;DHT22;8062;53.882;10.642;2024-02-23T08:01:31;5.90;99.90
15926;DHT22;8062;53.882;10.642;2024-02-23T08:02:50;5.90;99.90
15926;DHT22;8062;53.882;10.642;2024-02-23T08:04:10;6.00;99.90
15926;DHT22;8062;53.882;10.642;2024-02-23T08:05:29;5.90;99.90
15926;DHT22;8062;53.882;10.642;2024-02-23T08:06:49;6.00;99.90
15926;DHT22;8062;53.882;10.642;2024-02-23T08:08:08;6.00;99.90
15926;DHT22;8062;53.882;10.642;2024-02-23T08:09:28;6.00;99.90
15926;DHT22;8062;53.882;10.642;2024-02-23T08:10:47;6.00;99.90
15926;DHT22;8062;53.882;10.642;2024-02-23T08:12:07;6.00;99.90
15926;DHT22;8062;53.882;10.642;2024-02-23T08:13:26;6.10;99.90
15926;DHT22;8062;53.882;10.642;2024-02-23T08:14:46;6.10;99.90
15926;DHT22;8062;53.882;10.642;2024-02-23T08:16:07;6.20;99.90
15926;DHT22;8062;53.882;10.642;2024-02-23T08:17:27;6.20;99.90
15926;DHT22;8062;53.882;10.642;2024-02-23T08:18:46;6.40;99.90
15926;DHT22;8062;53.882;10.642;2024-02-23T08:20:06;6.40;99.90
15926;DHT22;8062;53.882;10.642;2024-02-23T08:21:26;6.40;99.90
15926;DHT22;8062;53.882;10.642;2024-02-23T08:22:46;6.40;99.90
15926;DHT22;8062;53.882;10.642;2024-02-23T08:24:06;6.40;99.90
15926;DHT22;8062;53.882;10.642;2024-02-23T08:25:26;6.40;99.90
15926;DHT22;8062;53.882;10.642;2024-02-23T08:26:48;6.40;99.90
15926;DHT22;8062;53.882;10.642;2024-02-23T08:28:08;6.40;99.90
15926;DHT22;8062;53.882;10.642;2024-02-23T08:29:27;6.50;99.90
15926;DHT22;8062;53.882;10.642;2024-02-23T08:30:46;6.50;99.90
15926;DHT22;8062;53.882;10.642;2024-02-23T08:32:06;6.50;99.90